Time;durP1;ratioP1;P1;durP2;ratioP2;P2;SDS_P1;SDS_P2;PMS_P1;PMS_P2;Temp;Humidity;BMP_temperature;BMP_pressure;BME280_temperature;BME280_humidity;BME280_pressure;Samples;Min_cycle;Max_cycle;Signal;HPM_P1;HPM_P2
2021/11/07 00:06:15;;;;;;;7.30;6.60;;;;;;;6.52;78.73;100186.50;5044047;28;20238;-82
2021/11/07 00:11:32;;;;;;;9.07;7.07;;;;;;;6.41;79.01;100157.63;5043707;28;20289;-82
2021/11/07 00:14:02;;;;;;;7.70;6.90;;;;;;;6.29;78.80;100137.81;5044028;28;20249;-82
2021/11/07 00:16:32;;;;;;;7.63;6.73;;;;;;;6.27;79.14;100147.78;5043494;28;20222;-81
2021/11/07 00:19:10;;;;;;;7.77;6.90;;;;;;;6.20;79.85;100163.63;5041278;28;20241;-81
2021/11/07 00:24:45;;;;;;;8.10;7.07;;;;;;;6.06;80.06;100159.09;5022417;28;20226;-81
2021/11/07 00:27:28;;;;;;;8.27;7.03;;;;;;;5.89;79.69;100132.78;5028975;28;20229;-82
2021/11/07 00:30:49;;;;;;;10.87;7.10;;;;;;;5.83;79.98;100139.63;5046528;28;20293;-82
2021/11/07 00:32:56;;;;;;;7.90;7.10;;;;;;;5.76;80.28;100138.66;5040129;28;20249;-82
2021/11/07 00:38:16;;;;;;;8.73;7.83;;;;;;;5.67;80.26;100121.94;5045242;28;20234;-82
2021/11/07 00:41:37;;;;;;;7.90;7.10;;;;;;;5.59;80.05;100108.72;5044649;28;20225;-82
2021/11/07 00:43:50;;;;;;;9.17;7.83;;;;;;;5.47;79.56;100103.94;5041994;28;20234;-82
2021/11/07 00:46:36;;;;;;;9.17;7.70;;;;;;;5.42;80.51;100116.94;5046943;28;20293;-81
2021/11/07 00:49:26;;;;;;;8.97;8.07;;;;;;;5.31;80.10;100111.03;5050818;28;20249;-82
2021/11/07 00:54:59;;;;;;;10.30;8.43;;;;;;;5.14;80.77;100114.75;5061709;23;20232;-80
2021/11/07 00:57:58;;;;;;;11.40;9.03;;;;;;;5.10;81.00;100118.75;5060993;28;20277;-81
2021/11/07 01:00:46;;;;;;;12.00;10.80;;;;;;;5.05;81.55;100118.44;5072739;28;20233;-81
2021/11/07 01:03:20;;;;;;;11.97;10.67;;;;;;;4.99;81.30;100113.00;5058954;28;20194;-80
2021/11/07 01:06:00;;;;;;;10.97;9.87;;;;;;;5.06;81.64;100130.72;5056486;28;20236;-80
2021/11/07 01:08:35;;;;;;;10.60;9.57;;;;;;;5.12;81.35;100119.41;5074319;28;20185;-80
2021/11/07 01:11:03;;;;;;;11.50;9.60;;;;;;;5.18;81.52;100101.97;5073369;28;20236;-81
2021/11/07 01:13:50;;;;;;;10.57;9.53;;;;;;;5.22;81.40;100092.66;5099697;22;20231;-80
2021/11/07 01:16:34;;;;;;;11.55;9.40;;;;;;;5.29;81.80;100096.25;4572606;22;15065658;-81
2021/11/07 01:19:20;;;;;;;10.67;9.47;;;;;;;5.36;82.24;100099.03;5073218;28;20256;-81
2021/11/07 01:22:21;;;;;;;10.37;9.30;;;;;;;5.43;81.63;100105.31;5067939;28;20216;-81
2021/11/07 01:25:10;;;;;;;11.00;9.80;;;;;;;5.45;82.35;100103.31;5073787;28;20212;-80
2021/11/07 01:27:53;;;;;;;10.63;9.50;;;;;;;5.45;81.94;100090.03;5072798;28;20231;-80
2021/11/07 01:30:30;;;;;;;10.20;9.20;;;;;;;5.49;82.38;100078.03;5090214;22;20228;-80
2021/11/07 01:33:23;;;;;;;10.63;9.50;;;;;;;5.51;82.37;100063.56;5077672;28;20216;-81
2021/11/07 01:38:55;;;;;;;10.57;9.40;;;;;;;5.60;82.36;100054.50;5092960;28;20224;-81
2021/11/07 01:43:50;;;;;;;10.97;9.60;;;;;;;5.67;82.05;100050.16;5091851;28;20212;-83
2021/11/07 01:46:50;;;;;;;10.47;9.37;;;;;;;5.74;82.08;100053.75;5074997;28;20224;-81
2021/11/07 01:49:42;;;;;;;10.77;9.67;;;;;;;5.69;82.65;100040.16;5092280;28;20219;-80
2021/11/07 01:52:12;;;;;;;10.70;9.60;;;;;;;5.81;82.07;100050.38;5089385;28;20236;-83
2021/11/07 01:55:03;;;;;;;11.73;9.57;;;;;;;5.75;82.17;100033.31;5091755;28;20204;-83
2021/11/07 01:57:56;;;;;;;11.33;9.80;;;;;;;5.86;82.11;100046.19;5090736;28;20247;-81
2021/11/07 02:00:30;;;;;;;11.70;10.50;;;;;;;5.94;82.14;100047.97;5097204;22;20288;-80
2021/11/07 02:03:20;;;;;;;11.20;9.90;;;;;;;5.96;82.51;100046.81;5014721;28;20214;-81
2021/11/07 02:05:49;;;;;;;10.77;9.67;;;;;;;5.95;82.34;100042.47;5031355;28;20306;-82
2021/11/07 02:08:21;;;;;;;10.30;9.20;;;;;;;5.98;81.98;100041.28;5086394;23;20252;-83
2021/11/07 02:10:54;;;;;;;11.37;10.27;;;;;;;6.02;82.02;100031.97;5088561;28;20228;-81
2021/11/07 02:13:22;;;;;;;11.13;9.67;;;;;;;5.99;81.92;100040.28;5056686;28;20228;-82
2021/11/07 02:15:51;;;;;;;13.03;10.77;;;;;;;6.04;82.10;100038.75;5088832;28;20647;-82
2021/11/07 02:18:23;;;;;;;10.87;9.77;;;;;;;6.09;81.68;100041.69;5089942;28;20227;-81
2021/11/07 02:20:54;;;;;;;12.17;10.87;;;;;;;6.11;81.84;100052.97;5090554;28;20267;-82
2021/11/07 02:23:36;;;;;;;12.73;11.10;;;;;;;6.13;81.60;100042.97;5095680;23;20263;-80
2021/11/07 02:26:05;;;;;;;12.50;11.20;;;;;;;6.11;81.15;100026.34;5053465;28;20231;-81
2021/11/07 02:28:41;;;;;;;13.37;12.07;;;;;;;6.24;80.47;100038.22;5051284;28;20232;-80
2021/11/07 02:31:15;;;;;;;13.93;11.87;;;;;;;6.27;81.14;100041.34;5086795;28;20231;-80
2021/11/07 02:33:46;;;;;;;11.97;10.77;;;;;;;6.26;81.09;100031.69;5069454;28;20238;-81
2021/11/07 02:36:19;;;;;;;13.40;11.70;;;;;;;6.33;80.67;100027.31;5085535;28;20228;-82
2021/11/07 02:38:49;;;;;;;13.47;11.63;;;;;;;6.38;80.21;100021.44;5040160;23;20227;-83
2021/11/07 02:41:20;;;;;;;14.23;12.53;;;;;;;6.38;79.48;100006.31;5008546;28;20229;-82
2021/11/07 02:43:50;;;;;;;13.83;12.03;;;;;;;6.44;79.05;100018.06;5027440;28;20299;-80
2021/11/07 02:46:18;;;;;;;12.90;11.60;;;;;;;6.40;79.65;100022.91;5009168;28;20317;-81
2021/11/07 02:48:48;;;;;;;13.27;11.87;;;;;;;6.40;80.21;100030.88;5026010;28;20230;-81
2021/11/07 02:51:17;;;;;;;12.80;11.33;;;;;;;6.39;79.54;100023.91;5041268;28;20227;-82
2021/11/07 02:53:43;;;;;;;13.10;11.70;;;;;;;6.34;80.09;100018.34;5024719;28;20314;-81
2021/11/07 02:56:11;;;;;;;14.13;12.57;;;;;;;6.41;79.35;100023.72;5025436;28;20277;-83
2021/11/07 02:58:39;;;;;;;12.17;10.97;;;;;;;6.40;79.36;100022.06;5024411;28;20572;-81
2021/11/07 03:01:07;;;;;;;12.93;11.30;;;;;;;6.42;79.00;100017.41;5025503;28;20227;-83
2021/11/07 03:03:36;;;;;;;12.57;11.33;;;;;;;6.41;78.67;100010.44;5008763;28;20247;-81
2021/11/07 03:06:05;;;;;;;12.37;11.27;;;;;;;6.41;78.25;100011.25;5008729;28;20705;-80
2021/11/07 03:08:40;;;;;;;12.37;11.07;;;;;;;6.42;78.34;100025.38;4994519;28;20632;-82
2021/11/07 03:11:12;;;;;;;11.57;10.30;;;;;;;6.41;78.08;100029.06;5029060;28;20234;-83
2021/11/07 03:13:39;;;;;;;11.77;10.57;;;;;;;6.43;78.32;100027.88;5029339;28;20231;-82
2021/11/07 03:16:12;;;;;;;13.40;10.80;;;;;;;6.42;77.79;100015.56;5013049;28;20298;-80
2021/11/07 03:18:40;;;;;;;12.00;10.63;;;;;;;6.35;78.28;100013.81;5028807;28;20246;-81
2021/11/07 03:21:09;;;;;;;13.23;11.83;;;;;;;6.33;78.49;100021.16;5030258;28;20253;-81
2021/11/07 03:23:40;;;;;;;12.33;11.10;;;;;;;6.31;79.10;100024.00;5027479;28;20234;-81
2021/11/07 03:26:11;;;;;;;11.80;10.60;;;;;;;6.30;78.58;100024.19;4997175;28;20215;-82
2021/11/07 03:28:42;;;;;;;12.03;10.83;;;;;;;6.23;78.84;100016.09;5028636;28;20651;-83
2021/11/07 03:31:16;;;;;;;11.37;10.23;;;;;;;6.13;78.84;100008.41;5030450;28;20223;-81
2021/11/07 03:33:51;;;;;;;12.17;10.87;;;;;;;6.08;79.45;100002.78;5029674;28;20265;-81
2021/11/07 03:36:20;;;;;;;12.40;11.10;;;;;;;5.94;79.07;99992.13;5012786;28;20222;-82
2021/11/07 03:38:52;;;;;;;12.47;10.50;;;;;;;5.86;79.90;100002.81;5029995;28;20238;-81
2021/11/07 03:41:28;;;;;;;11.40;10.30;;;;;;;5.82;79.42;100006.84;5029640;28;20223;-82
2021/11/07 03:43:58;;;;;;;11.67;10.53;;;;;;;5.72;79.87;100004.44;5028799;28;20577;-81
2021/11/07 03:46:27;;;;;;;12.30;10.77;;;;;;;5.72;79.03;100004.44;5028795;28;20230;-81
2021/11/07 03:48:55;;;;;;;10.70;9.60;;;;;;;5.73;79.98;100014.06;5028965;28;20241;-81
2021/11/07 03:51:24;;;;;;;11.33;10.23;;;;;;;5.61;79.54;100020.78;5065609;23;20237;-81
2021/11/07 03:53:58;;;;;;;11.33;10.10;;;;;;;5.50;79.97;100039.84;5070908;23;20229;-81
2021/11/07 03:56:29;;;;;;;12.17;10.00;;;;;;;5.42;80.68;100042.53;5054341;28;20237;-82
2021/11/07 03:58:57;;;;;;;11.40;10.23;;;;;;;5.52;79.91;100043.13;5071368;28;20443;-82
2021/11/07 04:01:37;;;;;;;11.73;10.23;;;;;;;5.38;79.74;100042.06;5072942;28;20269;-80
2021/11/07 04:04:18;;;;;;;11.70;10.57;;;;;;;5.26;79.86;100056.75;5073109;28;20221;-80
2021/11/07 04:06:53;;;;;;;11.73;10.40;;;;;;;5.05;80.53;100041.41;5072989;28;20185;-81
2021/11/07 04:09:24;;;;;;;11.07;9.97;;;;;;;5.07;80.67;100044.75;5072560;28;20213;-82
2021/11/07 04:11:59;;;;;;;12.00;10.23;;;;;;;5.01;81.39;100042.78;5073039;28;20217;-82
2021/11/07 04:14:34;;;;;;;11.57;10.07;;;;;;;4.85;81.43;100029.59;5087361;28;20233;-80
2021/11/07 04:17:05;;;;;;;11.27;10.07;;;;;;;4.79;81.43;100033.75;5072990;28;20236;-82
2021/11/07 04:19:36;;;;;;;11.40;10.20;;;;;;;4.66;81.48;100025.53;5090830;22;20254;-80
2021/11/07 04:22:09;;;;;;;11.33;10.13;;;;;;;4.60;81.53;100028.84;5072492;28;20228;-80
2021/11/07 04:24:37;;;;;;;11.20;10.03;;;;;;;4.50;81.92;100030.03;5092147;28;20224;-81
2021/11/07 04:27:15;;;;;;;11.03;9.77;;;;;;;4.51;81.96;100039.66;5076501;28;20220;-80
2021/11/07 04:29:43;;;;;;;10.43;9.43;;;;;;;4.38;81.98;100021.63;5091660;28;20219;-80
2021/11/07 04:32:27;;;;;;;11.30;10.13;;;;;;;4.35;82.24;100028.09;5115634;22;20234;-80
2021/11/07 04:35:09;;;;;;;11.37;9.73;;;;;;;4.29;82.16;100030.63;5077901;28;20548;-80
2021/11/07 04:37:52;;;;;;;10.80;9.70;;;;;;;4.20;82.27;100027.13;5059234;28;20197;-80
2021/11/07 04:40:25;;;;;;;11.17;9.70;;;;;;;4.07;82.30;100026.81;5092527;28;20243;-80
2021/11/07 04:43:13;;;;;;;10.83;9.73;;;;;;;4.05;82.57;100025.34;5092652;28;20635;-81
2021/11/07 04:45:55;;;;;;;11.77;10.57;;;;;;;4.04;82.54;100024.53;5094450;28;20224;-80
2021/11/07 04:48:32;;;;;;;11.37;10.20;;;;;;;3.96;82.54;100016.59;5092923;28;20236;-80
2021/11/07 04:51:06;;;;;;;11.17;10.07;;;;;;;3.90;83.15;100025.19;5092362;28;20200;-80
2021/11/07 04:53:33;;;;;;;12.67;10.43;;;;;;;3.77;83.41;100004.50;5092698;28;20296;-80
2021/11/07 04:56:09;;;;;;;11.40;10.20;;;;;;;3.77;83.25;100008.97;5074038;28;20181;-81
2021/11/07 04:58:42;;;;;;;12.30;10.40;;;;;;;3.71;83.19;100002.50;5092769;28;20212;-81
2021/11/07 05:01:10;;;;;;;10.93;9.83;;;;;;;3.67;83.35;100000.38;5078005;23;20237;-80
2021/11/07 05:03:51;;;;;;;11.97;10.50;;;;;;;3.65;83.49;100003.16;5069559;28;20308;-80
2021/11/07 05:06:35;;;;;;;12.63;11.30;;;;;;;3.65;83.85;99999.69;5079969;23;20221;-81
2021/11/07 05:09:06;;;;;;;12.50;11.20;;;;;;;3.64;83.96;99987.47;5090646;28;20236;-80
2021/11/07 05:11:45;;;;;;;12.30;11.10;;;;;;;3.58;83.91;99991.59;5095184;23;20208;-80
2021/11/07 05:14:15;;;;;;;14.53;13.03;;;;;;;3.58;84.41;99988.94;5070741;28;20244;-79
2021/11/07 05:16:44;;;;;;;13.80;12.13;;;;;;;3.52;84.13;99969.25;5073051;22;20237;-80
2021/11/07 05:19:15;;;;;;;13.47;11.73;;;;;;;3.50;84.38;99975.69;5049723;28;20237;-80
2021/11/07 05:21:46;;;;;;;14.50;12.33;;;;;;;3.52;84.39;99981.66;5067720;28;20205;-80
2021/11/07 05:24:15;;;;;;;13.00;11.57;;;;;;;3.45;84.03;99964.78;5067393;28;20645;-79
2021/11/07 05:26:43;;;;;;;13.30;11.97;;;;;;;3.48;84.51;99965.28;5067671;28;20212;-80
2021/11/07 05:29:09;;;;;;;13.97;12.53;;;;;;;3.45;84.51;99959.47;5065945;28;20241;-79
2021/11/07 05:31:36;;;;;;;14.73;13.13;;;;;;;3.44;85.21;99956.00;5051417;28;20228;-80
2021/11/07 05:34:05;;;;;;;14.90;13.17;;;;;;;3.38;84.95;99948.72;5066724;28;20229;-80
2021/11/07 05:36:33;;;;;;;13.83;12.40;;;;;;;3.39;85.03;99938.94;5068326;28;20237;-80
2021/11/07 05:39:01;;;;;;;14.23;12.83;;;;;;;3.32;84.91;99927.34;5067548;28;20197;-80
2021/11/07 05:41:28;;;;;;;13.50;11.93;;;;;;;3.29;84.65;99927.69;5067385;28;20320;-80
2021/11/07 05:43:58;;;;;;;13.40;11.57;;;;;;;3.26;84.76;99934.16;5067700;28;20693;-83
2021/11/07 05:46:28;;;;;;;12.40;11.13;;;;;;;3.13;84.67;99944.38;5066802;28;20229;-80
2021/11/07 05:48:59;;;;;;;12.43;11.00;;;;;;;3.09;84.62;99953.66;5078940;23;20235;-80
2021/11/07 05:51:28;;;;;;;13.93;11.60;;;;;;;2.98;84.68;99940.75;5036469;23;20326;-80
2021/11/07 05:53:59;;;;;;;13.00;11.63;;;;;;;2.90;84.72;99944.19;5027724;28;20240;-80
2021/11/07 05:56:27;;;;;;;13.00;11.70;;;;;;;2.95;84.95;99944.53;5017932;23;20228;-79
2021/11/07 05:59:03;;;;;;;14.27;12.67;;;;;;;2.90;85.09;99932.78;4998691;28;20236;-82
2021/11/07 06:01:34;;;;;;;15.47;13.87;;;;;;;2.94;85.14;99940.22;5045710;28;20225;-82
2021/11/07 06:04:16;;;;;;;15.20;13.50;;;;;;;2.91;85.23;99931.78;5046695;28;20226;-83
2021/11/07 06:06:53;;;;;;;14.07;12.57;;;;;;;2.88;85.28;99921.53;5048098;28;20185;-82
2021/11/07 06:09:21;;;;;;;14.00;12.47;;;;;;;2.86;84.94;99934.09;5067218;22;20249;-83
2021/11/07 06:11:52;;;;;;;13.37;11.97;;;;;;;2.81;85.20;99929.28;5051977;28;20291;-82
2021/11/07 06:14:20;;;;;;;13.93;12.40;;;;;;;2.83;84.56;99937.91;5034342;28;20575;-83
2021/11/07 06:16:48;;;;;;;15.97;14.33;;;;;;;2.82;84.57;99938.88;5066656;28;20243;-82
2021/11/07 06:19:20;;;;;;;15.07;13.53;;;;;;;2.85;84.84;99950.97;5068800;28;20255;-81
2021/11/07 06:22:13;;;;;;;14.33;12.83;;;;;;;2.84;84.68;99949.31;5028759;28;20230;-82
2021/11/07 06:24:42;;;;;;;13.87;12.43;;;;;;;2.81;84.86;99950.47;5031158;28;20214;-83
2021/11/07 06:27:10;;;;;;;13.60;11.87;;;;;;;2.71;84.32;99939.19;5030050;28;20209;-82
2021/11/07 06:29:44;;;;;;;13.70;11.87;;;;;;;2.75;84.83;99932.59;5031974;28;20553;-82
2021/11/07 06:32:16;;;;;;;14.00;12.00;;;;;;;2.78;85.03;99937.56;5031401;28;20297;-82
2021/11/07 06:34:47;;;;;;;14.73;13.03;;;;;;;2.83;84.79;99937.06;5028532;28;20241;-82
2021/11/07 06:37:22;;;;;;;15.17;13.57;;;;;;;2.92;84.82;99954.63;5035045;22;20672;31
2021/11/07 06:40:04;;;;;;;15.30;13.37;;;;;;;3.02;85.02;99953.50;5057764;22;20246;-82
2021/11/07 06:43:00;;;;;;;15.70;13.53;;;;;;;3.15;84.82;99944.22;5104188;22;20290;-82
2021/11/07 06:45:53;;;;;;;14.83;13.23;;;;;;;3.24;84.61;99951.19;5119156;28;20184;-83
2021/11/07 06:48:21;;;;;;;15.70;13.17;;;;;;;3.31;84.55;99960.13;5116507;28;20241;-82
2021/11/07 06:51:25;;;;;;;15.30;13.70;;;;;;;3.45;84.86;99962.13;5124399;22;20230;-82
2021/11/07 06:54:11;;;;;;;14.83;13.23;;;;;;;3.61;85.01;99963.94;5109298;23;20226;-83
2021/11/07 06:56:51;;;;;;;16.13;12.93;;;;;;;3.73;84.89;99957.31;5118235;28;20214;-82
2021/11/07 06:59:36;;;;;;;15.40;13.20;;;;;;;3.92;84.84;99957.75;5124991;22;20223;-82
2021/11/07 07:02:43;;;;;;;14.30;12.40;;;;;;;4.08;84.76;99959.53;5106679;28;20227;-83
2021/11/07 07:05:18;;;;;;;13.97;12.33;;;;;;;4.17;84.26;99966.47;5125760;22;20212;-82
2021/11/07 07:08:06;;;;;;;13.30;11.83;;;;;;;4.34;84.50;99960.09;5081672;28;20228;-82
2021/11/07 07:10:47;;;;;;;14.03;11.67;;;;;;;4.30;83.95;99932.28;5097682;28;20192;-83
2021/11/07 07:14:02;;;;;;;13.27;11.90;;;;;;;4.65;83.99;99954.03;5113050;22;20203;-82
2021/11/07 07:17:40;;;;;;;15.80;12.80;;;;;;;4.81;83.63;99944.13;5108207;28;20231;-85
2021/11/07 07:20:26;;;;;;;14.53;10.93;;;;;;;4.94;82.95;99954.19;5044357;23;20247;-82
2021/11/07 07:32:41;;;;;;;12.77;11.43;;;;;;;5.49;81.48;99953.97;5165736;23;20235;-80
2021/11/07 07:35:25;;;;;;;11.40;9.93;;;;;;;5.53;80.42;99927.84;5100051;23;20221;-84
2021/11/07 07:37:56;;;;;;;11.33;10.13;;;;;;;5.69;80.44;99936.47;5096963;28;20227;-83
2021/11/07 07:40:27;;;;;;;11.63;9.63;;;;;;;5.76;80.63;99921.47;5112273;23;20219;-82
2021/11/07 07:43:02;;;;;;;10.30;9.20;;;;;;;5.86;79.20;99923.03;5099589;28;20235;-84
2021/11/07 07:46:04;;;;;;;9.83;8.83;;;;;;;5.94;78.46;99913.16;5115803;28;20254;-83
2021/11/07 07:48:38;;;;;;;9.97;8.83;;;;;;;6.03;77.72;99901.44;5115108;28;20296;-83
2021/11/07 07:51:08;;;;;;;10.07;9.07;;;;;;;6.12;78.47;99900.31;5098985;28;20194;-82
2021/11/07 07:53:39;;;;;;;9.13;8.20;;;;;;;6.13;77.99;99888.69;5097344;28;20306;-82
2021/11/07 07:56:13;;;;;;;9.93;8.93;;;;;;;6.19;77.14;99890.59;5113100;28;20214;-82
2021/11/07 07:58:45;;;;;;;10.17;8.83;;;;;;;6.33;77.41;99882.78;5108058;28;20196;-81
2021/11/07 08:01:14;;;;;;;9.63;8.63;;;;;;;6.42;77.21;99881.66;5112007;28;20239;-81
2021/11/07 08:03:42;;;;;;;9.63;8.73;;;;;;;6.46;76.07;99886.44;5110739;28;20228;-82
2021/11/07 08:06:12;;;;;;;9.70;8.70;;;;;;;6.51;76.11;99892.03;5116079;23;20287;-80
2021/11/07 08:08:39;;;;;;;9.80;8.30;;;;;;;6.63;76.36;99898.50;5074329;28;20223;-80
2021/11/07 08:11:06;;;;;;;10.17;8.63;;;;;;;6.72;75.79;99901.06;5092415;28;20228;-82
2021/11/07 08:13:36;;;;;;;10.60;9.47;;;;;;;6.79;75.28;99889.47;5092930;28;20307;-82
2021/11/07 08:16:09;;;;;;;11.17;8.43;;;;;;;6.83;75.15;99882.75;5108884;28;20337;-81
2021/11/07 08:18:36;;;;;;;12.00;8.77;;;;;;;6.90;74.30;99877.50;5109899;28;20247;-81
2021/11/07 08:21:03;;;;;;;9.70;8.70;;;;;;;6.98;74.30;99872.88;5091745;28;20247;-81
2021/11/07 08:23:32;;;;;;;9.93;8.90;;;;;;;7.09;74.63;99875.00;5108476;28;20311;-82
2021/11/07 08:26:01;;;;;;;11.53;10.33;;;;;;;7.18;74.04;99866.91;5108450;28;20311;-82
2021/11/07 08:28:30;;;;;;;10.53;9.47;;;;;;;7.37;73.01;99858.25;5108733;28;20249;-82
2021/11/07 08:31:06;;;;;;;11.43;9.90;;;;;;;7.36;73.39;99853.91;5108800;28;20228;-81
2021/11/07 08:33:39;;;;;;;11.10;9.43;;;;;;;7.50;72.58;99859.16;5057634;28;20254;-82
2021/11/07 08:36:12;;;;;;;10.80;9.70;;;;;;;7.53;72.40;99852.59;5096674;28;20219;-81
2021/11/07 08:38:59;;;;;;;11.27;9.27;;;;;;;7.58;72.49;99849.34;5101416;22;20240;-82
2021/11/07 08:41:30;;;;;;;13.37;9.40;;;;;;;7.67;72.05;99851.69;5078962;28;20236;-81
2021/11/07 09:01:40;;;;;;;12.17;9.53;;;;;;;8.23;70.08;99848.91;5098133;22;20235;-80
2021/11/07 09:09:27;;;;;;;11.97;10.73;;;;;;;8.52;68.24;99856.63;5055841;28;20215;-82
2021/11/07 09:11:58;;;;;;;13.07;11.00;;;;;;;8.73;68.28;99871.69;5077837;23;20283;-80
2021/11/07 09:14:37;;;;;;;13.83;11.53;;;;;;;8.73;68.14;99861.00;5071189;28;20502;-80
2021/11/07 09:17:14;;;;;;;12.73;11.40;;;;;;;8.89;68.20;99875.84;5056237;28;20320;-81
2021/11/07 09:19:49;;;;;;;12.00;10.70;;;;;;;8.95;67.68;99862.50;5084450;23;20945;-81
2021/11/07 09:25:03;;;;;;;12.33;10.53;;;;;;;9.15;67.70;99863.31;5073797;28;20229;-82
2021/11/07 09:28:26;;;;;;;13.63;10.97;;;;;;;9.20;66.87;99858.19;5057398;28;20213;-81
2021/11/07 09:32:05;;;;;;;13.37;11.60;;;;;;;9.37;66.85;99852.44;5072436;28;20209;-81
2021/11/07 09:36:30;;;;;;;16.03;13.80;;;;;;;9.51;66.25;99849.56;5096865;23;20226;-80
2021/11/07 09:40:05;;;;;;;13.53;11.90;;;;;;;9.60;65.70;99851.00;5113195;28;20210;-81
2021/11/07 09:43:07;;;;;;;13.73;11.63;;;;;;;9.65;65.75;99826.28;5102550;28;20258;-80
2021/11/07 09:47:57;;;;;;;13.93;11.67;;;;;;;9.72;65.15;99805.69;5089354;28;20247;-82
2021/11/07 09:50:25;;;;;;;13.77;11.30;;;;;;;9.81;65.11;99822.31;5106024;23;20299;-81
2021/11/07 09:53:04;;;;;;;12.60;11.30;;;;;;;9.95;65.19;99823.94;5111999;28;20314;-81
2021/11/07 09:55:34;;;;;;;13.27;11.10;;;;;;;9.97;64.29;99808.50;5096658;28;20228;-82
2021/11/07 09:58:03;;;;;;;12.30;11.03;;;;;;;10.10;63.84;99806.59;5108150;28;20295;-80
2021/11/07 10:00:45;;;;;;;13.80;11.40;;;;;;;10.07;63.17;99790.13;5097341;28;20311;-82
2021/11/07 10:03:21;;;;;;;12.57;10.47;;;;;;;9.94;63.61;99780.28;5097139;28;20184;-82
2021/11/07 10:05:59;;;;;;;11.87;10.50;;;;;;;10.07;62.97;99776.75;5064520;28;20237;-82
2021/11/07 10:08:44;;;;;;;11.80;10.37;;;;;;;10.10;63.56;99785.19;5195305;23;20219;-79
2021/11/07 10:12:12;;;;;;;11.93;10.73;;;;;;;10.19;63.37;99779.59;5095831;28;20576;-80
2021/11/07 10:15:45;;;;;;;12.17;10.20;;;;;;;10.29;62.27;99786.16;5034032;28;20159;-80
2021/11/07 10:19:05;;;;;;;11.17;9.83;;;;;;;10.43;61.73;99781.53;5033577;28;20217;-80
2021/11/07 10:22:29;;;;;;;11.13;9.93;;;;;;;10.30;62.04;99773.59;5087121;22;20199;-80
2021/11/07 10:29:26;;;;;;;10.77;9.53;;;;;;;10.64;61.24;99778.50;5119893;28;20218;-79
2021/11/07 10:33:00;;;;;;;10.07;8.53;;;;;;;10.57;60.33;99775.91;5086332;23;20290;-79
2021/11/07 10:36:21;;;;;;;11.03;9.37;;;;;;;10.80;60.34;99766.47;5106106;22;20233;-79
2021/11/07 10:39:36;;;;;;;9.83;8.93;;;;;;;10.85;60.15;99770.13;5065957;28;20217;-81
2021/11/07 10:45:40;;;;;;;11.33;8.90;;;;;;;10.99;60.71;99771.66;5099067;23;20212;-79
2021/11/07 10:52:23;;;;;;;22.00;15.90;;;;;;;11.36;59.98;99751.13;5109000;23;20216;-80
2021/11/07 10:54:58;;;;;;;14.53;13.03;;;;;;;11.51;59.66;99745.41;5095594;28;20252;-79
2021/11/07 10:58:25;;;;;;;10.73;9.67;;;;;;;11.67;59.58;99726.00;5099139;28;20180;-80
2021/11/07 11:01:43;;;;;;;12.20;9.63;;;;;;;11.71;59.22;99718.34;5099253;28;20212;-79
2021/11/07 11:05:06;;;;;;;13.80;12.60;;;;;;;11.86;58.88;99718.78;5080325;28;20188;-79
2021/11/07 11:08:39;;;;;;;12.37;10.30;;;;;;;11.94;57.50;99715.00;5078167;28;20210;-79
2021/11/07 11:11:48;;;;;;;11.17;9.97;;;;;;;11.84;57.64;99720.91;5077811;28;20217;-79
2021/11/07 11:14:30;;;;;;;10.90;9.63;;;;;;;11.89;58.30;99705.75;5045066;28;20209;-79
2021/11/07 11:21:50;;;;;;;11.93;10.73;;;;;;;12.08;57.62;99703.03;5058119;28;20233;-79
2021/11/07 11:28:17;;;;;;;13.70;11.77;;;;;;;12.35;56.74;99680.94;5077113;28;20228;-80
2021/11/07 11:31:37;;;;;;;10.70;9.60;;;;;;;12.51;55.95;99686.69;5099436;23;20220;-78
2021/11/07 11:34:32;;;;;;;9.83;8.83;;;;;;;12.59;55.47;99681.81;5123220;22;20232;-79
2021/11/07 11:37:38;;;;;;;9.57;8.50;;;;;;;12.55;53.79;99666.38;5082827;28;20241;-79
2021/11/07 11:41:08;;;;;;;9.80;8.57;;;;;;;12.68;53.59;99666.97;5113605;22;20245;-78
2021/11/07 11:44:09;;;;;;;10.30;9.30;;;;;;;12.76;52.92;99668.50;5040687;28;20238;-78
2021/11/07 11:47:46;;;;;;;8.73;7.83;;;;;;;12.79;52.40;99659.94;5069923;23;20999;-78
2021/11/07 12:00:18;;;;;;;8.27;7.40;;;;;;;12.89;52.91;99638.69;5113516;28;20228;-79
2021/11/07 12:02:59;;;;;;;8.37;7.57;;;;;;;12.98;52.28;99631.91;5116864;22;20228;-79
2021/11/07 12:06:15;;;;;;;8.30;7.47;;;;;;;13.07;52.23;99622.41;5111465;28;20226;-79
2021/11/07 12:09:18;;;;;;;8.30;7.43;;;;;;;13.11;52.53;99620.13;5098820;28;20226;-79
2021/11/07 12:15:07;;;;;;;10.23;7.53;;;;;;;13.30;51.46;99605.44;5113898;28;20234;-79
2021/11/07 12:18:17;;;;;;;8.60;7.60;;;;;;;13.38;51.54;99596.19;5120877;23;20224;-79
2021/11/07 12:21:28;;;;;;;8.00;7.23;;;;;;;13.30;51.33;99593.88;5103385;23;20228;-79
2021/11/07 12:24:10;;;;;;;8.27;7.40;;;;;;;13.34;50.96;99579.72;5097046;28;20300;-78
2021/11/07 12:27:22;;;;;;;6.07;5.53;;;;;;;13.35;48.38;99585.91;5096150;28;20236;-79
2021/11/07 12:30:41;;;;;;;9.27;7.47;;;;;;;13.39;50.58;99570.94;5098119;28;20172;-79
2021/11/07 12:33:31;;;;;;;8.00;7.20;;;;;;;13.51;50.13;99572.50;5096391;28;20208;-79
2021/11/07 12:36:29;;;;;;;8.40;7.43;;;;;;;13.50;51.42;99573.56;5144886;23;20247;-79
2021/11/07 12:43:31;;;;;;;6.87;6.27;;;;;;;13.46;49.51;99558.97;5094631;28;20240;-79
2021/11/07 12:46:58;;;;;;;7.33;6.63;;;;;;;13.50;48.90;99556.59;5092797;28;20232;-79
2021/11/07 12:49:30;;;;;;;6.67;6.07;;;;;;;13.52;49.41;99552.63;5096967;22;20240;-80
2021/11/07 12:52:19;;;;;;;6.77;6.07;;;;;;;13.48;49.59;99532.63;5090243;28;20246;-80
2021/11/07 12:54:46;;;;;;;6.23;5.63;;;;;;;13.55;49.63;99543.25;5084948;28;20225;-81
2021/11/07 12:57:17;;;;;;;6.73;6.13;;;;;;;13.59;49.40;99539.81;5084151;28;20254;-80
2021/11/07 12:59:59;;;;;;;6.77;6.07;;;;;;;13.53;49.02;99534.59;5088340;28;20235;-81
2021/11/07 13:02:32;;;;;;;5.40;4.90;;;;;;;13.55;48.28;99556.69;5089724;28;20243;-79
2021/11/07 13:05:30;;;;;;;5.37;4.87;;;;;;;13.53;48.08;99554.25;5090312;28;20188;-79
2021/11/07 13:08:12;;;;;;;5.70;4.90;;;;;;;13.51;48.39;99558.25;5075291;28;20173;-79
2021/11/07 13:11:01;;;;;;;5.03;4.50;;;;;;;13.45;48.28;99551.13;5092771;28;20229;-79
2021/11/07 13:14:00;;;;;;;5.53;5.00;;;;;;;13.50;48.21;99545.84;5077528;28;20241;-80
2021/11/07 13:16:54;;;;;;;5.03;4.53;;;;;;;13.40;48.96;99542.94;5089710;28;20239;-80
2021/11/07 13:19:58;;;;;;;5.27;4.77;;;;;;;13.63;47.59;99549.06;5084247;22;20242;-79
2021/11/07 13:23:03;;;;;;;5.20;4.70;;;;;;;13.48;48.38;99535.31;5052186;28;20222;-78
2021/11/07 13:26:01;;;;;;;4.97;4.50;;;;;;;13.49;48.45;99536.13;5051396;28;20229;-79
2021/11/07 13:29:28;;;;;;;6.60;5.60;;;;;;;13.55;48.34;99533.28;5051234;28;20643;-79
2021/11/07 13:32:22;;;;;;;5.57;4.97;;;;;;;13.55;48.92;99521.72;5072033;23;20224;-79
2021/11/07 13:35:06;;;;;;;7.17;5.73;;;;;;;13.56;50.06;99517.97;5086939;28;20228;-80
2021/11/07 13:37:52;;;;;;;6.47;5.83;;;;;;;13.61;50.31;99520.75;5089498;28;20667;-80
2021/11/07 13:40:39;;;;;;;6.53;5.90;;;;;;;13.73;49.25;99516.09;5088942;28;20232;-79
2021/11/07 13:43:27;;;;;;;8.50;5.77;;;;;;;13.53;50.12;99508.47;5074540;28;20291;-79
2021/11/07 13:45:56;;;;;;;5.63;4.63;;;;;;;13.50;50.50;99510.84;5091435;28;20214;-81
2021/11/07 13:48:30;;;;;;;5.20;4.50;;;;;;;13.42;50.45;99513.94;5073101;28;20239;-79
2021/11/07 13:51:03;;;;;;;4.73;4.33;;;;;;;13.42;50.10;99505.84;5090389;28;20229;-80
2021/11/07 13:53:35;;;;;;;5.67;4.57;;;;;;;13.47;49.72;99497.88;5067634;28;20575;-83
2021/11/07 13:56:08;;;;;;;5.70;4.93;;;;;;;13.41;50.31;99485.38;5062450;28;20349;-82
2021/11/07 13:58:38;;;;;;;6.17;5.57;;;;;;;13.56;49.81;99486.47;5058841;28;20224;-80
2021/11/07 14:01:07;;;;;;;7.67;5.93;;;;;;;13.62;50.22;99473.94;5074953;28;20249;-79
2021/11/07 14:03:35;;;;;;;7.03;6.03;;;;;;;13.61;50.07;99467.72;5045861;28;20281;-83
2021/11/07 14:06:18;;;;;;;7.17;6.47;;;;;;;13.51;50.62;99466.72;5074368;28;20311;-79
2021/11/07 14:08:56;;;;;;;7.20;6.40;;;;;;;13.64;49.94;99463.72;5058354;28;20682;-82
2021/11/07 14:11:23;;;;;;;7.70;6.87;;;;;;;13.59;49.97;99463.63;5075533;28;20256;-80